sensor_id;sensor_type;location;lat;lon;timestamp;pressure;altitude;pressure_sealevel;temperature;humidity
31538;BME280;18147;51.952;6.146;2023-04-02T00:01:53;101063.00;;;6.35;100.00
31538;BME280;18147;51.952;6.146;2023-04-02T00:04:21;101062.06;;;6.36;100.00
31538;BME280;18147;51.952;6.146;2023-04-02T00:07:25;101074.66;;;6.31;100.00
31538;BME280;18147;51.952;6.146;2023-04-02T00:09:55;101067.56;;;6.31;100.00
31538;BME280;18147;51.952;6.146;2023-04-02T00:12:21;101068.03;;;6.41;100.00
31538;BME280;18147;51.952;6.146;2023-04-02T00:14:49;101066.78;;;6.29;100.00
31538;BME280;18147;51.952;6.146;2023-04-02T00:17:16;101082.19;;;6.19;100.00
31538;BME280;18147;51.952;6.146;2023-04-02T00:19:57;101090.13;;;6.19;100.00
31538;BME280;18147;51.952;6.146;2023-04-02T00:22:28;101095.00;;;6.08;100.00
31538;BME280;18147;51.952;6.146;2023-04-02T00:24:55;101099.88;;;6.19;100.00
31538;BME280;18147;51.952;6.146;2023-04-02T00:27:21;101107.25;;;6.11;100.00
31538;BME280;18147;51.952;6.146;2023-04-02T00:29:49;101120.84;;;6.02;100.00
31538;BME280;18147;51.952;6.146;2023-04-02T00:32:22;101115.34;;;6.08;100.00
31538;BME280;18147;51.952;6.146;2023-04-02T00:34:49;101113.31;;;5.92;100.00
31538;BME280;18147;51.952;6.146;2023-04-02T00:37:19;101117.66;;;6.15;100.00
31538;BME280;18147;51.952;6.146;2023-04-02T00:40:00;101124.34;;;6.02;100.00
31538;BME280;18147;51.952;6.146;2023-04-02T00:42:30;101128.63;;;6.06;100.00
31538;BME280;18147;51.952;6.146;2023-04-02T00:44:57;101128.88;;;6.00;100.00
31538;BME280;18147;51.952;6.146;2023-04-02T00:47:41;101137.97;;;6.15;100.00
31538;BME280;18147;51.952;6.146;2023-04-02T00:52:37;101146.63;;;5.96;100.00
31538;BME280;18147;51.952;6.146;2023-04-02T00:55:08;101160.28;;;6.09;100.00
31538;BME280;18147;51.952;6.146;2023-04-02T00:57:41;101149.34;;;5.95;100.00
31538;BME280;18147;51.952;6.146;2023-04-02T01:05:42;101160.06;;;5.92;100.00
31538;BME280;18147;51.952;6.146;2023-04-02T01:13:57;101169.31;;;5.80;100.00
31538;BME280;18147;51.952;6.146;2023-04-02T01:21:59;101180.75;;;5.81;100.00
31538;BME280;18147;51.952;6.146;2023-04-02T01:24:33;101182.28;;;5.86;100.00
31538;BME280;18147;51.952;6.146;2023-04-02T01:27:16;101182.63;;;5.77;100.00
31538;BME280;18147;51.952;6.146;2023-04-02T01:29:46;101188.06;;;5.74;100.00
31538;BME280;18147;51.952;6.146;2023-04-02T01:32:16;101203.59;;;5.83;100.00
31538;BME280;18147;51.952;6.146;2023-04-02T01:34:45;101200.03;;;5.84;100.00
31538;BME280;18147;51.952;6.146;2023-04-02T01:37:16;101199.72;;;5.93;100.00
31538;BME280;18147;51.952;6.146;2023-04-02T01:40:08;101215.16;;;5.81;100.00
31538;BME280;18147;51.952;6.146;2023-04-02T01:45:36;101227.59;;;5.79;100.00
31538;BME280;18147;51.952;6.146;2023-04-02T01:48:15;101237.75;;;5.66;100.00
31538;BME280;18147;51.952;6.146;2023-04-02T01:50:43;101227.69;;;5.76;100.00
31538;BME280;18147;51.952;6.146;2023-04-02T01:53:12;101235.06;;;5.67;100.00
31538;BME280;18147;51.952;6.146;2023-04-02T01:58:12;101243.19;;;5.61;100.00
31538;BME280;18147;51.952;6.146;2023-04-02T02:00:46;101252.91;;;5.61;100.00
31538;BME280;18147;51.952;6.146;2023-04-02T02:03:14;101258.28;;;5.59;100.00
31538;BME280;18147;51.952;6.146;2023-04-02T02:05:41;101257.97;;;5.67;100.00
31538;BME280;18147;51.952;6.146;2023-04-02T02:08:19;101274.31;;;5.55;100.00
31538;BME280;18147;51.952;6.146;2023-04-02T02:10:48;101279.06;;;5.45;100.00
31538;BME280;18147;51.952;6.146;2023-04-02T02:13:15;101280.38;;;5.33;100.00
31538;BME280;18147;51.952;6.146;2023-04-02T02:15:41;101281.31;;;5.31;100.00
31538;BME280;18147;51.952;6.146;2023-04-02T02:18:10;101292.50;;;5.39;100.00
31538;BME280;18147;51.952;6.146;2023-04-02T02:20:37;101293.53;;;5.35;100.00
31538;BME280;18147;51.952;6.146;2023-04-02T02:23:03;101290.72;;;5.39;100.00
31538;BME280;18147;51.952;6.146;2023-04-02T02:25:32;101298.72;;;5.38;100.00
31538;BME280;18147;51.952;6.146;2023-04-02T02:30:52;101315.66;;;5.32;100.00
31538;BME280;18147;51.952;6.146;2023-04-02T02:33:23;101292.88;;;5.28;100.00
31538;BME280;18147;51.952;6.146;2023-04-02T02:39:03;101321.09;;;5.28;100.00
31538;BME280;18147;51.952;6.146;2023-04-02T02:44:24;101325.31;;;5.33;100.00
31538;BME280;18147;51.952;6.146;2023-04-02T02:46:57;101335.97;;;5.30;100.00
31538;BME280;18147;51.952;6.146;2023-04-02T02:49:33;101340.13;;;5.12;100.00
31538;BME280;18147;51.952;6.146;2023-04-02T02:55:07;101359.38;;;5.16;100.00
31538;BME280;18147;51.952;6.146;2023-04-02T02:57:51;101360.38;;;5.12;100.00
31538;BME280;18147;51.952;6.146;2023-04-02T03:00:20;101373.06;;;5.02;100.00
31538;BME280;18147;51.952;6.146;2023-04-02T03:02:50;101369.06;;;4.89;100.00
31538;BME280;18147;51.952;6.146;2023-04-02T03:05:24;101392.09;;;4.84;100.00
31538;BME280;18147;51.952;6.146;2023-04-02T03:07:55;101383.94;;;4.91;100.00
31538;BME280;18147;51.952;6.146;2023-04-02T03:10:42;101388.75;;;4.79;100.00
31538;BME280;18147;51.952;6.146;2023-04-02T03:13:33;101394.88;;;4.79;100.00
31538;BME280;18147;51.952;6.146;2023-04-02T03:16:12;101409.34;;;4.67;100.00
31538;BME280;18147;51.952;6.146;2023-04-02T03:24:21;101415.22;;;4.77;100.00
31538;BME280;18147;51.952;6.146;2023-04-02T03:26:57;101424.69;;;4.84;100.00
31538;BME280;18147;51.952;6.146;2023-04-02T03:29:27;101417.56;;;4.86;100.00
31538;BME280;18147;51.952;6.146;2023-04-02T03:32:15;101431.09;;;4.76;100.00
31538;BME280;18147;51.952;6.146;2023-04-02T03:34:48;101432.47;;;4.89;100.00
31538;BME280;18147;51.952;6.146;2023-04-02T03:42:22;101433.78;;;4.74;100.00
31538;BME280;18147;51.952;6.146;2023-04-02T03:44:56;101444.09;;;4.83;100.00
31538;BME280;18147;51.952;6.146;2023-04-02T03:47:33;101454.75;;;4.80;100.00
31538;BME280;18147;51.952;6.146;2023-04-02T03:53:15;101456.78;;;4.71;100.00
31538;BME280;18147;51.952;6.146;2023-04-02T03:55:41;101467.31;;;4.72;100.00
31538;BME280;18147;51.952;6.146;2023-04-02T03:58:14;101469.00;;;4.75;100.00
31538;BME280;18147;51.952;6.146;2023-04-02T04:01:10;101490.50;;;4.62;100.00
31538;BME280;18147;51.952;6.146;2023-04-02T04:03:41;101481.47;;;4.70;100.00
31538;BME280;18147;51.952;6.146;2023-04-02T04:06:15;101504.50;;;4.64;100.00
31538;BME280;18147;51.952;6.146;2023-04-02T04:08:50;101495.50;;;4.72;100.00
31538;BME280;18147;51.952;6.146;2023-04-02T04:11:25;101500.88;;;4.68;100.00
31538;BME280;18147;51.952;6.146;2023-04-02T04:14:16;101512.13;;;4.75;100.00
31538;BME280;18147;51.952;6.146;2023-04-02T04:17:10;101521.31;;;4.62;100.00
31538;BME280;18147;51.952;6.146;2023-04-02T04:20:21;101529.03;;;4.70;100.00
31538;BME280;18147;51.952;6.146;2023-04-02T04:22:51;101534.44;;;4.65;100.00
31538;BME280;18147;51.952;6.146;2023-04-02T04:25:29;101532.78;;;4.61;100.00
31538;BME280;18147;51.952;6.146;2023-04-02T04:28:53;101542.66;;;4.54;100.00
31538;BME280;18147;51.952;6.146;2023-04-02T04:31:20;101551.59;;;4.49;100.00
31538;BME280;18147;51.952;6.146;2023-04-02T04:33:54;101556.50;;;4.30;100.00
31538;BME280;18147;51.952;6.146;2023-04-02T04:36:39;101560.22;;;4.23;100.00
31538;BME280;18147;51.952;6.146;2023-04-02T04:42:01;101561.72;;;4.33;100.00
31538;BME280;18147;51.952;6.146;2023-04-02T04:44:53;101566.47;;;4.19;100.00
31538;BME280;18147;51.952;6.146;2023-04-02T04:47:34;101582.34;;;4.17;100.00
31538;BME280;18147;51.952;6.146;2023-04-02T04:50:13;101589.53;;;4.12;100.00
31538;BME280;18147;51.952;6.146;2023-04-02T04:52:44;101588.53;;;4.16;100.00
31538;BME280;18147;51.952;6.146;2023-04-02T04:57:58;101600.25;;;4.04;100.00
31538;BME280;18147;51.952;6.146;2023-04-02T05:06:04;101624.38;;;3.89;100.00
31538;BME280;18147;51.952;6.146;2023-04-02T05:08:35;101627.16;;;3.81;100.00
31538;BME280;18147;51.952;6.146;2023-04-02T05:11:13;101627.16;;;3.81;100.00
31538;BME280;18147;51.952;6.146;2023-04-02T05:13:50;101647.50;;;3.78;100.00
31538;BME280;18147;51.952;6.146;2023-04-02T05:17:07;101658.44;;;3.59;100.00
31538;BME280;18147;51.952;6.146;2023-04-02T05:19:43;101654.06;;;3.58;100.00
31538;BME280;18147;51.952;6.146;2023-04-02T05:22:19;101664.50;;;3.63;100.00
31538;BME280;18147;51.952;6.146;2023-04-02T05:27:47;101678.66;;;3.59;100.00
31538;BME280;18147;51.952;6.146;2023-04-02T05:32:59;101690.84;;;3.64;100.00
31538;BME280;18147;51.952;6.146;2023-04-02T05:35:34;101706.16;;;3.46;100.00
31538;BME280;18147;51.952;6.146;2023-04-02T05:38:01;101703.22;;;3.61;100.00
31538;BME280;18147;51.952;6.146;2023-04-02T05:40:41;101709.34;;;3.63;100.00
31538;BME280;18147;51.952;6.146;2023-04-02T05:43:15;101713.81;;;3.59;100.00
31538;BME280;18147;51.952;6.146;2023-04-02T05:45:50;101713.94;;;3.53;100.00
31538;BME280;18147;51.952;6.146;2023-04-02T05:48:32;101728.19;;;3.43;100.00
31538;BME280;18147;51.952;6.146;2023-04-02T05:51:00;101742.09;;;3.51;100.00
31538;BME280;18147;51.952;6.146;2023-04-02T05:53:33;101742.25;;;3.44;100.00
31538;BME280;18147;51.952;6.146;2023-04-02T06:04:51;101760.94;;;3.30;100.00
31538;BME280;18147;51.952;6.146;2023-04-02T06:07:34;101771.16;;;3.48;100.00
31538;BME280;18147;51.952;6.146;2023-04-02T06:10:09;101769.34;;;3.52;100.00
31538;BME280;18147;51.952;6.146;2023-04-02T06:12:42;101773.97;;;3.39;100.00
31538;BME280;18147;51.952;6.146;2023-04-02T06:15:19;101780.94;;;3.43;100.00
31538;BME280;18147;51.952;6.146;2023-04-02T06:20:27;101784.28;;;3.51;100.00
31538;BME280;18147;51.952;6.146;2023-04-02T06:23:02;101776.41;;;3.50;100.00
31538;BME280;18147;51.952;6.146;2023-04-02T06:25:54;101797.72;;;3.37;100.00
31538;BME280;18147;51.952;6.146;2023-04-02T06:28:32;101805.66;;;3.36;100.00
31538;BME280;18147;51.952;6.146;2023-04-02T06:31:07;101805.69;;;3.34;100.00
31538;BME280;18147;51.952;6.146;2023-04-02T06:33:35;101824.09;;;3.37;100.00
31538;BME280;18147;51.952;6.146;2023-04-02T06:36:03;101823.28;;;3.34;100.00
31538;BME280;18147;51.952;6.146;2023-04-02T06:38:32;101838.00;;;3.46;100.00
31538;BME280;18147;51.952;6.146;2023-04-02T06:41:16;101846.13;;;3.33;100.00
31538;BME280;18147;51.952;6.146;2023-04-02T06:44:11;101850.31;;;3.47;100.00
31538;BME280;18147;51.952;6.146;2023-04-02T06:49:41;101858.63;;;3.22;100.00
31538;BME280;18147;51.952;6.146;2023-04-02T06:52:14;101866.72;;;3.10;100.00
31538;BME280;18147;51.952;6.146;2023-04-02T06:54:41;101882.13;;;3.34;100.00
31538;BME280;18147;51.952;6.146;2023-04-02T06:57:09;101889.38;;;3.20;100.00
31538;BME280;18147;51.952;6.146;2023-04-02T06:59:39;101884.72;;;3.37;100.00
31538;BME280;18147;51.952;6.146;2023-04-02T07:02:34;101892.63;;;3.37;100.00
31538;BME280;18147;51.952;6.146;2023-04-02T07:05:06;101895.13;;;3.45;100.00
31538;BME280;18147;51.952;6.146;2023-04-02T07:07:40;101905.59;;;3.50;100.00
31538;BME280;18147;51.952;6.146;2023-04-02T07:10:10;101912.44;;;3.60;100.00
31538;BME280;18147;51.952;6.146;2023-04-02T07:12:37;101914.97;;;3.66;100.00
31538;BME280;18147;51.952;6.146;2023-04-02T07:15:03;101926.75;;;3.47;100.00
31538;BME280;18147;51.952;6.146;2023-04-02T07:17:29;101926.16;;;3.29;100.00
31538;BME280;18147;51.952;6.146;2023-04-02T07:19:55;101929.25;;;3.54;100.00
31538;BME280;18147;51.952;6.146;2023-04-02T07:22:22;101946.13;;;3.44;100.00
31538;BME280;18147;51.952;6.146;2023-04-02T07:24:58;101942.38;;;3.59;100.00
31538;BME280;18147;51.952;6.146;2023-04-02T07:27:23;101939.88;;;3.50;100.00
31538;BME280;18147;51.952;6.146;2023-04-02T07:29:49;101953.47;;;3.76;100.00
31538;BME280;18147;51.952;6.146;2023-04-02T07:32:18;101953.06;;;3.50;100.00
31538;BME280;18147;51.952;6.146;2023-04-02T07:34:50;101974.34;;;3.37;100.00
31538;BME280;18147;51.952;6.146;2023-04-02T07:37:15;101962.63;;;3.57;100.00
31538;BME280;18147;51.952;6.146;2023-04-02T07:39:41;101977.63;;;3.53;100.00
31538;BME280;18147;51.952;6.146;2023-04-02T07:42:07;101966.13;;;3.56;100.00
31538;BME280;18147;51.952;6.146;2023-04-02T07:44:32;101981.78;;;3.68;100.00
31538;BME280;18147;51.952;6.146;2023-04-02T07:46:58;101984.19;;;3.82;100.00
31538;BME280;18147;51.952;6.146;2023-04-02T07:49:23;101978.09;;;3.78;100.00
31538;BME280;18147;51.952;6.146;2023-04-02T07:51:50;101985.66;;;3.98;100.00
31538;BME280;18147;51.952;6.146;2023-04-02T07:54:16;101986.91;;;3.77;100.00
31538;BME280;18147;51.952;6.146;2023-04-02T07:56:41;102005.41;;;3.74;100.00
31538;BME280;18147;51.952;6.146;2023-04-02T07:59:07;101998.66;;;3.58;100.00
31538;BME280;18147;51.952;6.146;2023-04-02T08:01:33;102002.91;;;3.67;100.00
31538;BME280;18147;51.952;6.146;2023-04-02T08:04:03;102018.06;;;3.51;100.00
31538;BME280;18147;51.952;6.146;2023-04-02T08:06:29;101997.28;;;3.88;100.00
31538;BME280;18147;51.952;6.146;2023-04-02T08:08:58;102016.91;;;3.70;100.00
31538;BME280;18147;51.952;6.146;2023-04-02T08:11:24;102006.97;;;3.87;100.00
31538;BME280;18147;51.952;6.146;2023-04-02T08:13:49;102021.34;;;3.68;100.00
31538;BME280;18147;51.952;6.146;2023-04-02T08:16:16;102030.19;;;3.64;100.00
31538;BME280;18147;51.952;6.146;2023-04-02T08:18:41;102031.94;;;3.67;100.00
31538;BME280;18147;51.952;6.146;2023-04-02T08:21:09;102034.63;;;3.62;100.00
31538;BME280;18147;51.952;6.146;2023-04-02T08:23:36;102043.25;;;3.73;100.00
31538;BME280;18147;51.952;6.146;2023-04-02T08:26:03;102048.25;;;3.90;100.00
31538;BME280;18147;51.952;6.146;2023-04-02T08:28:32;102061.56;;;3.82;100.00
31538;BME280;18147;51.952;6.146;2023-04-02T08:30:58;102042.81;;;3.99;100.00
31538;BME280;18147;51.952;6.146;2023-04-02T08:33:24;102054.91;;;4.11;100.00
31538;BME280;18147;51.952;6.146;2023-04-02T08:35:50;102046.84;;;4.20;100.00
31538;BME280;18147;51.952;6.146;2023-04-02T08:38:18;102042.06;;;4.42;100.00
31538;BME280;18147;51.952;6.146;2023-04-02T08:40:53;102055.19;;;3.96;100.00
31538;BME280;18147;51.952;6.146;2023-04-02T08:43:24;102058.91;;;4.35;100.00
31538;BME280;18147;51.952;6.146;2023-04-02T08:46:13;102060.34;;;4.51;100.00
31538;BME280;18147;51.952;6.146;2023-04-02T08:48:43;102071.16;;;4.39;100.00
31538;BME280;18147;51.952;6.146;2023-04-02T08:51:25;102085.56;;;4.69;100.00
31538;BME280;18147;51.952;6.146;2023-04-02T08:53:55;102089.69;;;4.37;100.00
31538;BME280;18147;51.952;6.146;2023-04-02T08:59:38;102100.47;;;4.73;100.00
31538;BME280;18147;51.952;6.146;2023-04-02T09:04:47;102120.88;;;4.65;100.00
31538;BME280;18147;51.952;6.146;2023-04-02T09:07:14;102110.09;;;5.22;100.00
31538;BME280;18147;51.952;6.146;2023-04-02T09:09:41;102116.84;;;4.92;100.00
31538;BME280;18147;51.952;6.146;2023-04-02T09:12:20;102121.84;;;5.07;100.00
31538;BME280;18147;51.952;6.146;2023-04-02T09:17:24;102138.84;;;4.94;100.00
31538;BME280;18147;51.952;6.146;2023-04-02T09:20:00;102140.69;;;5.34;100.00
31538;BME280;18147;51.952;6.146;2023-04-02T09:22:28;102144.50;;;5.19;100.00
31538;BME280;18147;51.952;6.146;2023-04-02T09:25:01;102135.88;;;5.09;100.00
31538;BME280;18147;51.952;6.146;2023-04-02T09:27:32;102142.88;;;5.12;100.00
31538;BME280;18147;51.952;6.146;2023-04-02T09:32:51;102170.09;;;5.17;100.00
31538;BME280;18147;51.952;6.146;2023-04-02T09:35:19;102152.88;;;4.98;100.00
31538;BME280;18147;51.952;6.146;2023-04-02T09:37:46;102160.47;;;5.14;100.00
31538;BME280;18147;51.952;6.146;2023-04-02T09:40:17;102164.34;;;5.40;100.00
31538;BME280;18147;51.952;6.146;2023-04-02T09:42:43;102168.59;;;5.04;100.00
31538;BME280;18147;51.952;6.146;2023-04-02T09:45:21;102168.34;;;5.16;100.00
31538;BME280;18147;51.952;6.146;2023-04-02T09:47:48;102165.06;;;5.05;100.00
31538;BME280;18147;51.952;6.146;2023-04-02T09:52:50;102185.69;;;4.84;100.00
31538;BME280;18147;51.952;6.146;2023-04-02T09:55:18;102176.50;;;5.05;100.00
31538;BME280;18147;51.952;6.146;2023-04-02T09:57:49;102186.28;;;5.00;100.00
31538;BME280;18147;51.952;6.146;2023-04-02T10:05:33;102213.66;;;4.96;100.00
31538;BME280;18147;51.952;6.146;2023-04-02T10:08:14;102217.63;;;4.72;100.00
31538;BME280;18147;51.952;6.146;2023-04-02T10:10:43;102230.59;;;4.87;100.00
31538;BME280;18147;51.952;6.146;2023-04-02T10:15:59;102248.09;;;4.93;100.00
31538;BME280;18147;51.952;6.146;2023-04-02T10:18:37;102247.78;;;4.59;100.00
31538;BME280;18147;51.952;6.146;2023-04-02T10:21:05;102248.91;;;4.97;100.00
31538;BME280;18147;51.952;6.146;2023-04-02T10:23:31;102248.47;;;4.70;100.00
31538;BME280;18147;51.952;6.146;2023-04-02T10:31:22;102262.16;;;4.39;100.00
31538;BME280;18147;51.952;6.146;2023-04-02T10:33:51;102265.66;;;4.43;100.00
31538;BME280;18147;51.952;6.146;2023-04-02T10:36:27;102282.47;;;4.34;100.00
31538;BME280;18147;51.952;6.146;2023-04-02T10:39:05;102285.03;;;4.40;100.00
31538;BME280;18147;51.952;6.146;2023-04-02T10:44:32;102265.28;;;6.08;100.00
31538;BME280;18147;51.952;6.146;2023-04-02T10:53:09;102259.19;;;6.43;95.96
31538;BME280;18147;51.952;6.146;2023-04-02T10:55:37;102263.72;;;7.10;94.06
31538;BME280;18147;51.952;6.146;2023-04-02T11:01:19;102274.63;;;6.99;91.41
31538;BME280;18147;51.952;6.146;2023-04-02T11:03:58;102274.50;;;7.36;92.36
31538;BME280;18147;51.952;6.146;2023-04-02T11:06:31;102268.50;;;6.60;90.49
31538;BME280;18147;51.952;6.146;2023-04-02T11:09:04;102276.09;;;6.75;89.69
31538;BME280;18147;51.952;6.146;2023-04-02T11:11:52;102270.88;;;7.40;92.38
31538;BME280;18147;51.952;6.146;2023-04-02T11:14:29;102298.16;;;7.45;89.33
31538;BME280;18147;51.952;6.146;2023-04-02T11:16:59;102262.34;;;7.91;87.93
31538;BME280;18147;51.952;6.146;2023-04-02T11:19:31;102286.75;;;7.42;82.28
31538;BME280;18147;51.952;6.146;2023-04-02T11:22:01;102283.56;;;7.29;83.17
31538;BME280;18147;51.952;6.146;2023-04-02T11:27:12;102276.88;;;7.47;84.18
31538;BME280;18147;51.952;6.146;2023-04-02T11:37:36;102289.03;;;7.87;82.37
31538;BME280;18147;51.952;6.146;2023-04-02T11:42:48;102286.13;;;7.65;81.50
31538;BME280;18147;51.952;6.146;2023-04-02T11:53:04;102293.28;;;7.94;81.65
31538;BME280;18147;51.952;6.146;2023-04-02T12:01:56;102304.44;;;8.35;83.56
31538;BME280;18147;51.952;6.146;2023-04-02T12:10:04;102314.66;;;8.50;83.19
31538;BME280;18147;51.952;6.146;2023-04-02T12:12:37;102310.69;;;8.04;79.49
31538;BME280;18147;51.952;6.146;2023-04-02T12:18:15;102320.81;;;7.59;81.11
31538;BME280;18147;51.952;6.146;2023-04-02T12:20:46;102319.78;;;7.30;81.78
31538;BME280;18147;51.952;6.146;2023-04-02T12:23:21;102339.81;;;7.42;78.12
31538;BME280;18147;51.952;6.146;2023-04-02T12:28:28;102334.00;;;7.93;76.24
31538;BME280;18147;51.952;6.146;2023-04-02T12:33:35;102345.97;;;7.76;75.11
31538;BME280;18147;51.952;6.146;2023-04-02T12:36:22;102354.03;;;8.36;76.80
31538;BME280;18147;51.952;6.146;2023-04-02T12:38:57;102348.06;;;8.59;75.42
31538;BME280;18147;51.952;6.146;2023-04-02T12:41:26;102354.56;;;8.17;75.43
31538;BME280;18147;51.952;6.146;2023-04-02T12:46:33;102352.13;;;8.70;74.83
31538;BME280;18147;51.952;6.146;2023-04-02T12:49:45;102361.09;;;8.66;75.80
31538;BME280;18147;51.952;6.146;2023-04-02T12:51:53;102366.44;;;8.35;75.61
31538;BME280;18147;51.952;6.146;2023-04-02T12:54:18;102362.84;;;8.07;76.28
31538;BME280;18147;51.952;6.146;2023-04-02T12:56:46;102373.53;;;8.05;76.68
31538;BME280;18147;51.952;6.146;2023-04-02T12:59:32;102357.44;;;8.41;73.35
31538;BME280;18147;51.952;6.146;2023-04-02T13:02:14;102378.66;;;8.42;74.29
31538;BME280;18147;51.952;6.146;2023-04-02T13:04:49;102369.31;;;8.27;73.92
31538;BME280;18147;51.952;6.146;2023-04-02T13:07:18;102374.75;;;8.23;74.20
31538;BME280;18147;51.952;6.146;2023-04-02T13:09:47;102359.44;;;8.62;75.25
31538;BME280;18147;51.952;6.146;2023-04-02T13:14:58;102356.31;;;9.05;71.96
31538;BME280;18147;51.952;6.146;2023-04-02T13:17:44;102361.63;;;8.77;71.96
31538;BME280;18147;51.952;6.146;2023-04-02T13:20:34;102361.03;;;8.68;73.04
31538;BME280;18147;51.952;6.146;2023-04-02T13:26:09;102371.19;;;9.11;73.61
31538;BME280;18147;51.952;6.146;2023-04-02T13:28:36;102370.41;;;8.81;74.65
31538;BME280;18147;51.952;6.146;2023-04-02T13:31:03;102361.84;;;8.71;74.03
31538;BME280;18147;51.952;6.146;2023-04-02T13:33:29;102361.50;;;9.08;77.12
31538;BME280;18147;51.952;6.146;2023-04-02T13:35:55;102364.44;;;8.73;74.02
31538;BME280;18147;51.952;6.146;2023-04-02T13:38:20;102366.47;;;8.93;70.38
31538;BME280;18147;51.952;6.146;2023-04-02T13:40:55;102369.66;;;8.76;68.79
31538;BME280;18147;51.952;6.146;2023-04-02T13:43:21;102370.41;;;9.07;70.72
31538;BME280;18147;51.952;6.146;2023-04-02T13:45:52;102385.31;;;9.13;71.40
31538;BME280;18147;51.952;6.146;2023-04-02T13:48:18;102375.50;;;8.89;69.01
31538;BME280;18147;51.952;6.146;2023-04-02T13:50:48;102373.50;;;8.95;69.51
31538;BME280;18147;51.952;6.146;2023-04-02T13:53:21;102360.97;;;9.25;69.83
31538;BME280;18147;51.952;6.146;2023-04-02T13:55:48;102376.50;;;9.39;71.68
31538;BME280;18147;51.952;6.146;2023-04-02T13:58:15;102387.56;;;8.99;67.47
31538;BME280;18147;51.952;6.146;2023-04-02T14:00:40;102382.63;;;9.41;71.40
31538;BME280;18147;51.952;6.146;2023-04-02T14:03:20;102372.78;;;9.17;67.92
31538;BME280;18147;51.952;6.146;2023-04-02T14:06:11;102378.06;;;9.18;68.37
31538;BME280;18147;51.952;6.146;2023-04-02T14:11:42;102377.53;;;9.60;69.80
31538;BME280;18147;51.952;6.146;2023-04-02T14:31:26;102397.50;;;9.47;69.09
31538;BME280;18147;51.952;6.146;2023-04-02T14:37:00;102402.84;;;9.47;66.59
31538;BME280;18147;51.952;6.146;2023-04-02T14:45:08;102412.88;;;9.39;68.41
31538;BME280;18147;51.952;6.146;2023-04-02T14:47:42;102401.88;;;9.49;68.31
31538;BME280;18147;51.952;6.146;2023-04-02T14:50:18;102410.31;;;9.36;66.50
31538;BME280;18147;51.952;6.146;2023-04-02T14:52:49;102412.22;;;9.83;69.28
31538;BME280;18147;51.952;6.146;2023-04-02T14:58:01;102416.94;;;9.50;67.34
31538;BME280;18147;51.952;6.146;2023-04-02T15:00:40;102424.91;;;9.50;66.40
31538;BME280;18147;51.952;6.146;2023-04-02T15:03:13;102414.63;;;9.40;66.15
31538;BME280;18147;51.952;6.146;2023-04-02T15:05:47;102421.97;;;9.58;68.13
31538;BME280;18147;51.952;6.146;2023-04-02T15:08:25;102418.53;;;9.29;65.18
31538;BME280;18147;51.952;6.146;2023-04-02T15:13:46;102436.13;;;9.60;68.26
31538;BME280;18147;51.952;6.146;2023-04-02T15:16:35;102437.19;;;9.28;65.84
31538;BME280;18147;51.952;6.146;2023-04-02T15:19:02;102427.66;;;9.49;66.61
31538;BME280;18147;51.952;6.146;2023-04-02T15:21:30;102432.91;;;9.50;66.66
31538;BME280;18147;51.952;6.146;2023-04-02T15:29:50;102448.16;;;9.45;67.23
31538;BME280;18147;51.952;6.146;2023-04-02T15:37:27;102449.47;;;9.32;65.62
31538;BME280;18147;51.952;6.146;2023-04-02T15:40:05;102455.22;;;9.20;68.09
31538;BME280;18147;51.952;6.146;2023-04-02T15:42:44;102448.47;;;9.36;66.32
31538;BME280;18147;51.952;6.146;2023-04-02T15:45:25;102457.94;;;9.45;67.13
31538;BME280;18147;51.952;6.146;2023-04-02T15:56:18;102463.72;;;9.31;65.92
31538;BME280;18147;51.952;6.146;2023-04-02T16:07:18;102471.13;;;9.21;64.43
31538;BME280;18147;51.952;6.146;2023-04-02T16:12:39;102473.69;;;9.24;66.03
31538;BME280;18147;51.952;6.146;2023-04-02T16:15:29;102478.28;;;9.19;66.91
31538;BME280;18147;51.952;6.146;2023-04-02T16:18:10;102488.00;;;9.20;65.75
31538;BME280;18147;51.952;6.146;2023-04-02T16:20:49;102496.34;;;9.10;63.84
31538;BME280;18147;51.952;6.146;2023-04-02T16:23:45;102480.69;;;9.27;64.80
31538;BME280;18147;51.952;6.146;2023-04-02T16:31:56;102505.91;;;9.15;64.06
31538;BME280;18147;51.952;6.146;2023-04-02T16:34:35;102498.88;;;9.13;65.18
31538;BME280;18147;51.952;6.146;2023-04-02T16:37:25;102506.78;;;9.16;65.28
31538;BME280;18147;51.952;6.146;2023-04-02T16:42:50;102514.91;;;9.11;64.23
31538;BME280;18147;51.952;6.146;2023-04-02T16:46:32;102513.75;;;9.20;64.53
31538;BME280;18147;51.952;6.146;2023-04-02T16:48:50;102524.28;;;8.95;64.33
31538;BME280;18147;51.952;6.146;2023-04-02T16:51:50;102519.91;;;8.92;65.56
31538;BME280;18147;51.952;6.146;2023-04-02T17:02:56;102530.06;;;9.09;67.69
31538;BME280;18147;51.952;6.146;2023-04-02T17:05:32;102549.03;;;8.97;65.06
31538;BME280;18147;51.952;6.146;2023-04-02T17:10:59;102545.06;;;8.80;65.82
31538;BME280;18147;51.952;6.146;2023-04-02T17:18:39;102561.28;;;8.71;68.23
31538;BME280;18147;51.952;6.146;2023-04-02T17:21:08;102569.44;;;8.65;67.87
31538;BME280;18147;51.952;6.146;2023-04-02T17:26:48;102582.50;;;8.74;69.04
31538;BME280;18147;51.952;6.146;2023-04-02T17:29:22;102592.06;;;8.47;70.86
31538;BME280;18147;51.952;6.146;2023-04-02T17:31:51;102583.09;;;8.51;70.09
31538;BME280;18147;51.952;6.146;2023-04-02T17:34:18;102575.81;;;8.60;69.72
31538;BME280;18147;51.952;6.146;2023-04-02T17:42:47;102584.97;;;8.48;71.68
31538;BME280;18147;51.952;6.146;2023-04-02T17:45:36;102588.09;;;8.28;72.57
31538;BME280;18147;51.952;6.146;2023-04-02T18:01:27;102605.13;;;7.85;73.01
31538;BME280;18147;51.952;6.146;2023-04-02T18:06:31;102618.00;;;7.65;73.83
31538;BME280;18147;51.952;6.146;2023-04-02T18:09:13;102626.78;;;7.67;74.03
31538;BME280;18147;51.952;6.146;2023-04-02T18:12:25;102629.13;;;7.81;74.91